createdAt,value
2023-01-19T00:01:02.100Z,3.70
2023-01-19T00:03:31.256Z,3.80
2023-01-19T00:06:00.454Z,3.70
2023-01-19T00:08:29.499Z,3.70
2023-01-19T00:10:58.529Z,3.70
2023-01-19T00:13:27.620Z,3.70
2023-01-19T00:15:56.712Z,3.70
2023-01-19T00:18:27.179Z,3.70
2023-01-19T00:20:56.179Z,3.70
2023-01-19T00:23:25.269Z,3.80
2023-01-19T00:25:54.224Z,3.80
2023-01-19T00:28:23.207Z,3.70
2023-01-19T00:30:53.070Z,3.70
2023-01-19T00:33:22.051Z,3.70
2023-01-19T00:35:55.176Z,3.70
2023-01-19T00:38:24.259Z,3.80
2023-01-19T00:40:53.247Z,3.90
2023-01-19T00:43:21.171Z,3.90
2023-01-19T00:45:50.173Z,3.90
2023-01-19T00:48:19.222Z,3.90
2023-01-19T00:50:49.968Z,3.90
2023-01-19T00:53:20.693Z,4.00
2023-01-19T00:55:49.682Z,3.90
2023-01-19T00:58:18.875Z,4.00
2023-01-19T01:00:47.980Z,4.00
2023-01-19T01:03:17.008Z,4.00
2023-01-19T01:05:46.000Z,4.00
2023-01-19T01:08:14.998Z,4.10
2023-01-19T01:10:45.448Z,4.10
2023-01-19T01:13:21.643Z,4.10
2023-01-19T01:15:53.212Z,4.20
2023-01-19T01:18:23.210Z,4.20
2023-01-19T01:20:53.918Z,4.20
2023-01-19T01:23:24.253Z,4.10
2023-01-19T01:25:54.744Z,4.20
2023-01-19T01:28:23.788Z,4.20
2023-01-19T01:30:55.446Z,4.20
2023-01-19T01:33:40.939Z,4.20
2023-01-19T01:36:12.028Z,4.20
2023-01-19T01:38:41.864Z,4.20
2023-01-19T01:41:13.747Z,4.10
2023-01-19T01:43:47.575Z,4.20
2023-01-19T01:46:17.639Z,4.20
2023-01-19T01:48:51.238Z,4.20
2023-01-19T01:51:25.774Z,4.20
2023-01-19T01:54:08.154Z,4.30
2023-01-19T01:56:40.846Z,4.30
2023-01-19T01:59:18.225Z,4.30
2023-01-19T02:02:04.521Z,4.30
2023-01-19T02:04:34.113Z,4.30
2023-01-19T02:07:20.598Z,4.30
2023-01-19T02:10:07.303Z,4.30
2023-01-19T02:12:55.252Z,4.30
2023-01-19T02:15:24.545Z,4.30
2023-01-19T02:17:53.663Z,4.20
2023-01-19T02:20:24.841Z,4.20
2023-01-19T02:22:54.037Z,4.20
2023-01-19T02:25:25.723Z,4.30
2023-01-19T02:27:54.984Z,4.40
2023-01-19T02:30:24.433Z,4.40
2023-01-19T02:32:53.700Z,4.20
2023-01-19T02:35:23.810Z,4.20
2023-01-19T02:37:54.258Z,4.20
2023-01-19T02:40:26.076Z,4.20
2023-01-19T02:43:01.357Z,4.10
2023-01-19T02:45:31.570Z,4.10
2023-01-19T02:48:00.709Z,4.20
2023-01-19T02:50:38.707Z,4.20
2023-01-19T02:53:27.862Z,4.20
2023-01-19T02:56:04.220Z,4.20
2023-01-19T02:58:40.870Z,4.20
2023-01-19T03:01:17.667Z,4.20
2023-01-19T03:03:56.111Z,4.20
2023-01-19T03:06:37.013Z,4.10
2023-01-19T03:09:12.723Z,4.00
2023-01-19T03:11:51.180Z,3.90
2023-01-19T03:14:24.102Z,3.80
2023-01-19T03:16:56.554Z,3.80
2023-01-19T03:19:30.068Z,3.80
2023-01-19T03:22:02.336Z,3.80
2023-01-19T03:24:37.021Z,3.70
2023-01-19T03:27:12.506Z,3.60
2023-01-19T03:29:44.663Z,3.60
2023-01-19T03:32:17.704Z,3.50
2023-01-19T03:34:49.497Z,3.50
2023-01-19T03:37:21.526Z,3.70
2023-01-19T03:39:50.702Z,3.70
2023-01-19T03:42:21.807Z,3.60
2023-01-19T03:44:52.713Z,3.70
2023-01-19T03:47:22.902Z,3.50
2023-01-19T03:49:54.304Z,3.50
2023-01-19T03:52:30.243Z,3.50
2023-01-19T03:54:59.351Z,3.40
2023-01-19T03:57:29.793Z,3.50
2023-01-19T03:59:58.986Z,3.40
2023-01-19T04:02:28.061Z,3.50
2023-01-19T04:04:57.185Z,3.50
2023-01-19T04:07:26.243Z,3.50
2023-01-19T04:09:55.276Z,3.60
2023-01-19T04:12:24.358Z,3.50
2023-01-19T04:14:54.770Z,3.50
2023-01-19T04:17:23.805Z,3.50
2023-01-19T04:19:53.437Z,3.50
2023-01-19T04:22:22.418Z,3.50
2023-01-19T04:24:52.133Z,3.50
2023-01-19T04:27:21.198Z,3.50
2023-01-19T04:29:50.164Z,3.50
2023-01-19T04:32:20.632Z,3.50
2023-01-19T04:34:49.776Z,3.60
2023-01-19T04:37:19.330Z,3.70
2023-01-19T04:39:48.354Z,3.70
2023-01-19T04:42:17.405Z,3.60
2023-01-19T04:44:46.913Z,3.50
2023-01-19T04:47:15.899Z,3.50
2023-01-19T04:49:46.286Z,3.60
2023-01-19T04:52:15.230Z,3.60
2023-01-19T04:54:44.231Z,3.60
2023-01-19T04:57:13.168Z,3.50
2023-01-19T04:59:42.109Z,3.50
2023-01-19T05:02:11.919Z,3.50
2023-01-19T05:04:41.009Z,3.50
2023-01-19T05:07:11.584Z,3.50
2023-01-19T05:09:40.559Z,3.50
2023-01-19T05:12:09.687Z,3.50
2023-01-19T05:14:39.133Z,3.50
2023-01-19T05:17:08.364Z,3.40
2023-01-19T05:19:37.384Z,3.40
2023-01-19T05:22:07.470Z,3.40
2023-01-19T05:24:38.119Z,3.30
2023-01-19T05:27:07.182Z,3.40
2023-01-19T05:29:36.379Z,3.20
2023-01-19T05:32:06.102Z,3.20
2023-01-19T05:34:35.217Z,3.20
2023-01-19T05:37:04.314Z,3.20
2023-01-19T05:39:33.679Z,3.40
2023-01-19T05:42:04.110Z,3.30
2023-01-19T05:44:33.133Z,3.30
2023-01-19T05:47:02.068Z,3.30
2023-01-19T05:49:31.458Z,3.30
2023-01-19T05:52:00.451Z,3.30
2023-01-19T05:54:29.513Z,3.30
2023-01-19T05:56:58.554Z,3.40
2023-01-19T05:59:30.088Z,3.40
2023-01-19T06:02:00.167Z,3.50
2023-01-19T06:04:29.226Z,3.50
2023-01-19T06:06:58.373Z,3.50
2023-01-19T06:09:27.378Z,3.50
2023-01-19T06:11:58.139Z,3.50
2023-01-19T06:14:28.750Z,3.50
2023-01-19T06:16:57.755Z,3.50
2023-01-19T06:19:26.869Z,3.40
2023-01-19T06:21:55.876Z,3.40
2023-01-19T06:24:25.464Z,3.40
2023-01-19T06:26:55.009Z,3.40
2023-01-19T06:29:23.970Z,3.50
2023-01-19T06:31:54.631Z,3.60
2023-01-19T06:34:27.230Z,3.60
2023-01-19T06:36:56.563Z,3.70
2023-01-19T06:39:25.962Z,3.60
2023-01-19T06:41:54.960Z,3.70
2023-01-19T06:44:23.944Z,3.60
2023-01-19T06:47:14.642Z,3.70
2023-01-19T06:49:43.758Z,3.60
2023-01-19T06:52:16.119Z,3.70
2023-01-19T06:54:45.569Z,3.70
2023-01-19T06:57:14.887Z,3.50
2023-01-19T06:59:43.942Z,3.40
2023-01-19T07:02:26.654Z,3.40
2023-01-19T07:04:57.408Z,3.50
2023-01-19T07:07:26.717Z,3.50
2023-01-19T07:09:55.840Z,3.50
2023-01-19T07:12:25.263Z,3.50
2023-01-19T07:14:54.305Z,3.60
2023-01-19T07:17:24.764Z,3.60
2023-01-19T07:19:53.807Z,3.60
2023-01-19T07:22:22.816Z,3.70
2023-01-19T07:24:51.758Z,3.70
2023-01-19T07:27:20.720Z,3.80
2023-01-19T07:29:49.673Z,3.80
2023-01-19T07:32:18.642Z,3.90
2023-01-19T07:34:49.047Z,3.80
2023-01-19T07:37:17.993Z,3.70
2023-01-19T07:39:46.948Z,3.90
2023-01-19T07:42:15.950Z,3.90
2023-01-19T07:44:44.943Z,3.90
2023-01-19T07:47:14.013Z,3.80
2023-01-19T07:49:43.078Z,3.80
2023-01-19T07:52:13.529Z,3.90
2023-01-19T07:54:42.714Z,3.80
2023-01-19T07:57:12.003Z,3.80
2023-01-19T07:59:41.112Z,3.80
2023-01-19T08:02:12.071Z,3.80
2023-01-19T08:04:41.337Z,3.80
2023-01-19T08:07:11.135Z,3.80
2023-01-19T08:09:41.703Z,3.80
2023-01-19T08:12:10.927Z,3.80
2023-01-19T08:14:39.910Z,3.80
2023-01-19T08:17:09.087Z,3.80
2023-01-19T08:19:40.665Z,3.80
2023-01-19T08:22:10.401Z,3.80
2023-01-19T08:24:40.903Z,3.70
2023-01-19T08:27:13.198Z,3.70
2023-01-19T08:29:42.367Z,3.80
2023-01-19T08:32:11.698Z,3.80
2023-01-19T08:34:40.807Z,3.90
2023-01-19T08:37:09.865Z,3.80
2023-01-19T08:39:40.398Z,3.90
2023-01-19T08:42:09.768Z,3.90
2023-01-19T08:44:46.648Z,3.80
2023-01-19T08:47:19.021Z,3.80
2023-01-19T08:49:48.050Z,3.90
2023-01-19T08:52:17.064Z,3.90
2023-01-19T08:54:48.798Z,3.90
2023-01-19T08:57:17.840Z,3.90
2023-01-19T08:59:47.903Z,3.80
2023-01-19T09:02:17.149Z,3.80
2023-01-19T09:04:46.300Z,3.80
2023-01-19T09:07:15.903Z,3.80
2023-01-19T09:09:45.294Z,3.80
2023-01-19T09:12:16.046Z,3.90
2023-01-19T09:14:45.236Z,3.90
2023-01-19T09:17:15.093Z,3.80
2023-01-19T09:19:44.129Z,3.90
2023-01-19T09:22:13.318Z,3.90
2023-01-19T09:24:42.602Z,3.90
2023-01-19T09:27:12.034Z,3.90
2023-01-19T09:29:42.672Z,3.90
2023-01-19T09:32:12.092Z,3.90
2023-01-19T09:34:41.275Z,4.00
2023-01-19T09:37:10.419Z,4.00
2023-01-19T09:39:39.620Z,4.00
2023-01-19T09:42:15.884Z,4.10
2023-01-19T09:44:48.192Z,4.00
2023-01-19T09:47:20.764Z,4.00
2023-01-19T09:49:53.897Z,3.90
2023-01-19T09:52:23.282Z,3.90
2023-01-19T09:54:55.885Z,3.90
2023-01-19T09:57:27.431Z,4.00
2023-01-19T09:59:59.912Z,4.00
2023-01-19T10:02:37.946Z,4.00
2023-01-19T10:05:27.990Z,3.90
2023-01-19T10:08:12.275Z,3.90
2023-01-19T10:10:46.873Z,3.70
2023-01-19T10:13:29.117Z,3.80
2023-01-19T10:16:12.590Z,3.80
2023-01-19T10:18:48.025Z,3.90
2023-01-19T10:21:21.330Z,3.80
2023-01-19T10:23:54.860Z,3.80
2023-01-19T10:26:26.369Z,3.80
2023-01-19T10:28:57.731Z,3.90
2023-01-19T10:31:28.510Z,3.80
2023-01-19T10:33:57.557Z,3.90
2023-01-19T10:36:31.036Z,3.90
2023-01-19T10:39:00.662Z,4.00
2023-01-19T10:41:45.510Z,4.00
2023-01-19T10:44:24.290Z,4.00
2023-01-19T10:46:57.048Z,4.00
2023-01-19T10:49:29.417Z,4.10
2023-01-19T10:52:00.061Z,4.10
2023-01-19T10:54:31.322Z,4.10
2023-01-19T10:57:03.742Z,4.10
2023-01-19T10:59:36.264Z,4.10
2023-01-19T11:02:20.777Z,4.20
2023-01-19T11:04:53.275Z,4.20
2023-01-19T11:07:24.665Z,4.20
2023-01-19T11:10:15.376Z,4.20
2023-01-19T11:12:47.103Z,4.20
2023-01-19T11:15:18.005Z,4.20
2023-01-19T11:17:49.668Z,4.20
2023-01-19T11:20:25.066Z,4.20
2023-01-19T11:23:07.737Z,4.20
2023-01-19T11:25:38.343Z,4.30
2023-01-19T11:28:07.584Z,4.30
2023-01-19T11:30:36.965Z,4.40
2023-01-19T11:33:08.192Z,4.50
2023-01-19T11:35:40.569Z,4.40
2023-01-19T11:38:18.757Z,4.50
2023-01-19T11:40:56.390Z,4.50
2023-01-19T11:43:43.292Z,4.60
2023-01-19T11:46:17.916Z,4.60
2023-01-19T11:48:56.786Z,4.60
2023-01-19T11:51:29.468Z,4.50
2023-01-19T11:53:59.111Z,4.50
2023-01-19T11:56:30.741Z,4.50
2023-01-19T11:59:00.001Z,4.50
2023-01-19T12:01:33.390Z,4.40
2023-01-19T12:04:08.269Z,4.50
2023-01-19T12:06:41.756Z,4.50
2023-01-19T12:09:19.362Z,4.40
2023-01-19T12:11:52.119Z,4.40
2023-01-19T12:14:27.157Z,4.40
2023-01-19T12:17:00.887Z,4.50
2023-01-19T12:19:41.016Z,4.50
2023-01-19T12:22:15.563Z,4.50
2023-01-19T12:24:51.289Z,4.50
2023-01-19T12:27:28.518Z,4.50
2023-01-19T12:29:57.849Z,4.60
2023-01-19T12:32:35.543Z,4.60
2023-01-19T12:35:06.974Z,4.50
2023-01-19T12:37:40.825Z,4.50
2023-01-19T12:40:25.059Z,4.50
2023-01-19T12:43:04.262Z,4.60
2023-01-19T12:45:37.170Z,4.60
2023-01-19T12:48:11.801Z,4.60
2023-01-19T12:50:48.192Z,4.60
2023-01-19T12:53:23.187Z,4.50
2023-01-19T12:56:01.386Z,4.50
2023-01-19T12:58:32.108Z,4.40
2023-01-19T13:01:15.848Z,4.40
2023-01-19T13:03:48.193Z,4.30
2023-01-19T13:06:18.814Z,4.30
2023-01-19T13:08:58.981Z,4.20
2023-01-19T13:11:32.771Z,4.20
2023-01-19T13:14:35.827Z,4.20
2023-01-19T13:17:25.913Z,4.10
2023-01-19T13:20:20.213Z,4.10
2023-01-19T13:23:18.765Z,4.10
2023-01-19T13:26:02.737Z,4.00
2023-01-19T13:28:43.265Z,4.00
2023-01-19T13:31:13.801Z,4.10
2023-01-19T13:33:50.940Z,4.10
2023-01-19T13:36:29.004Z,4.10
2023-01-19T13:39:00.599Z,4.10
2023-01-19T13:41:36.507Z,4.10
2023-01-19T13:44:11.448Z,4.00
2023-01-19T13:46:41.256Z,4.00
2023-01-19T13:49:20.467Z,4.00
2023-01-19T13:52:06.046Z,4.00
2023-01-19T13:54:35.206Z,3.90
2023-01-19T13:57:06.092Z,3.90
2023-01-19T13:59:35.693Z,3.90
2023-01-19T14:02:15.064Z,3.90
2023-01-19T14:04:44.523Z,3.90
2023-01-19T14:07:26.532Z,3.90
2023-01-19T14:10:05.322Z,4.00
2023-01-19T14:12:43.502Z,4.00
2023-01-19T14:15:17.960Z,3.90
2023-01-19T14:18:07.462Z,3.90
2023-01-19T14:20:37.521Z,3.90
2023-01-19T14:23:06.988Z,3.90
2023-01-19T14:25:39.466Z,3.90
2023-01-19T14:28:34.301Z,3.90
2023-01-19T14:31:20.866Z,3.90
2023-01-19T14:33:51.689Z,3.90
2023-01-19T14:36:36.331Z,4.00
2023-01-19T14:39:05.721Z,4.00
2023-01-19T14:41:45.074Z,4.00
2023-01-19T14:44:21.258Z,4.00
2023-01-19T14:46:51.183Z,4.00
2023-01-19T14:49:22.983Z,3.90
2023-01-19T14:51:53.069Z,4.00
2023-01-19T14:54:29.992Z,4.00
2023-01-19T14:56:59.918Z,3.90
2023-01-19T14:59:31.283Z,3.90
2023-01-19T15:02:01.146Z,3.90
2023-01-19T15:04:30.388Z,3.90
2023-01-19T15:07:00.007Z,4.00
2023-01-19T15:09:29.474Z,4.00
2023-01-19T15:11:59.084Z,3.90
2023-01-19T15:14:29.704Z,3.90
2023-01-19T15:16:59.463Z,4.00
2023-01-19T15:19:28.600Z,4.00
2023-01-19T15:21:57.906Z,4.00
2023-01-19T15:24:27.030Z,4.00
2023-01-19T15:27:01.792Z,4.00
2023-01-19T15:29:35.510Z,4.00
2023-01-19T15:32:07.877Z,3.90
2023-01-19T15:34:39.013Z,3.90
2023-01-19T15:37:08.469Z,3.90
2023-01-19T15:39:37.778Z,3.90
2023-01-19T15:42:08.205Z,4.00
2023-01-19T15:44:38.887Z,3.90
2023-01-19T15:47:08.239Z,3.90
2023-01-19T15:49:38.435Z,3.90
2023-01-19T15:52:07.733Z,3.90
2023-01-19T15:54:36.798Z,3.80
2023-01-19T15:57:08.181Z,3.90
2023-01-19T15:59:40.034Z,3.90
2023-01-19T16:02:10.953Z,3.90
2023-01-19T16:04:40.545Z,3.90
2023-01-19T16:07:10.132Z,3.80
2023-01-19T16:09:39.233Z,3.80
2023-01-19T16:12:08.751Z,3.80
2023-01-19T16:14:39.287Z,3.80
2023-01-19T16:17:08.518Z,3.80
2023-01-19T16:19:37.834Z,3.80
2023-01-19T16:22:07.075Z,3.80
2023-01-19T16:24:36.203Z,3.80
2023-01-19T16:27:05.459Z,3.80
2023-01-19T16:29:34.622Z,3.80
2023-01-19T16:32:05.539Z,3.80
2023-01-19T16:34:35.389Z,3.90
2023-01-19T16:37:04.818Z,3.90
2023-01-19T16:39:34.565Z,3.90
2023-01-19T16:42:03.951Z,3.90
2023-01-19T16:44:34.381Z,3.80
2023-01-19T16:47:06.099Z,3.80
2023-01-19T16:49:36.197Z,3.80
2023-01-19T16:52:07.598Z,3.90
2023-01-19T16:54:39.352Z,3.90
2023-01-19T16:57:08.902Z,3.90
2023-01-19T16:59:40.032Z,3.80
2023-01-19T17:02:13.031Z,3.80
2023-01-19T17:04:43.349Z,3.80
2023-01-19T17:07:12.592Z,3.70
2023-01-19T17:09:42.887Z,3.60
2023-01-19T17:12:16.123Z,3.60
2023-01-19T17:14:48.804Z,3.70
2023-01-19T17:17:21.223Z,3.70
2023-01-19T17:19:51.761Z,3.70
2023-01-19T17:22:22.246Z,3.70
2023-01-19T17:24:52.802Z,3.70
2023-01-19T17:27:24.487Z,3.70
2023-01-19T17:29:56.235Z,3.70
2023-01-19T17:32:27.481Z,3.70
2023-01-19T17:34:58.665Z,3.60
2023-01-19T17:37:28.521Z,3.70
2023-01-19T17:39:58.324Z,3.60
2023-01-19T17:42:29.443Z,3.60
2023-01-19T17:44:59.545Z,3.60
2023-01-19T17:47:31.951Z,3.70
2023-01-19T17:50:03.340Z,3.70
2023-01-19T17:52:34.547Z,3.70
2023-01-19T17:55:05.727Z,3.70
2023-01-19T17:57:37.162Z,3.60
2023-01-19T18:00:09.617Z,3.60
2023-01-19T18:02:47.962Z,3.60
2023-01-19T18:05:19.477Z,3.50
2023-01-19T18:07:50.627Z,3.50
2023-01-19T18:10:22.985Z,3.60
2023-01-19T18:15:41.328Z,3.60
2023-01-19T18:18:14.136Z,3.60
2023-01-19T18:20:46.360Z,3.60
2023-01-19T18:23:19.272Z,3.50
2023-01-19T18:25:51.035Z,3.40
2023-01-19T18:28:23.044Z,3.30
2023-01-19T18:30:56.485Z,3.40
2023-01-19T18:33:31.750Z,3.40
2023-01-19T18:36:05.633Z,3.40
2023-01-19T18:38:39.245Z,3.40
2023-01-19T18:41:27.462Z,3.40
2023-01-19T18:44:07.072Z,3.50
2023-01-19T18:46:41.881Z,3.50
2023-01-19T18:49:16.422Z,3.40
2023-01-19T18:51:49.021Z,3.50
2023-01-19T18:54:20.706Z,3.40
2023-01-19T18:56:53.133Z,3.40
2023-01-19T18:59:23.782Z,3.50
2023-01-19T19:03:08.838Z,3.60
2023-01-19T19:07:17.020Z,3.60
2023-01-19T19:11:26.553Z,3.50
2023-01-19T19:14:24.896Z,3.60
2023-01-19T19:16:57.563Z,3.60
2023-01-19T19:19:33.373Z,3.60
2023-01-19T19:22:07.752Z,3.70
2023-01-19T19:25:03.202Z,3.70
2023-01-19T19:27:36.349Z,3.70
2023-01-19T19:30:19.437Z,3.70
2023-01-19T19:33:00.921Z,3.70
2023-01-19T19:35:33.873Z,3.70
2023-01-19T19:38:05.961Z,3.60
2023-01-19T19:40:37.882Z,3.60
2023-01-19T19:43:09.387Z,3.50
2023-01-19T19:45:42.223Z,3.50
2023-01-19T19:48:14.886Z,3.50
2023-01-19T19:50:45.835Z,3.60
2023-01-19T19:53:17.920Z,3.60
2023-01-19T19:55:59.531Z,3.60
2023-01-19T19:58:31.913Z,3.60
2023-01-19T20:01:11.196Z,3.50
2023-01-19T20:03:43.848Z,3.40
2023-01-19T20:06:18.730Z,3.50
2023-01-19T20:08:51.314Z,3.50
2023-01-19T20:11:27.553Z,3.50
2023-01-19T20:14:02.686Z,3.50
2023-01-19T20:16:38.115Z,3.50
2023-01-19T20:19:12.190Z,3.50
2023-01-19T20:21:44.850Z,3.50
2023-01-19T20:24:17.842Z,3.50
2023-01-19T20:26:57.613Z,3.60
2023-01-19T20:29:30.449Z,3.60
2023-01-19T20:32:04.743Z,3.50
2023-01-19T20:34:44.503Z,3.50
2023-01-19T20:37:17.032Z,3.50
2023-01-19T20:39:49.071Z,3.50
2023-01-19T20:42:21.483Z,3.50
2023-01-19T20:44:52.690Z,3.50
2023-01-19T20:47:26.139Z,3.50
2023-01-19T20:49:57.554Z,3.50
2023-01-19T20:52:28.096Z,3.50
2023-01-19T20:55:03.082Z,3.50
2023-01-19T20:57:34.172Z,3.50
2023-01-19T21:00:06.706Z,3.50
2023-01-19T21:02:40.017Z,3.40
2023-01-19T21:05:12.985Z,3.40
2023-01-19T21:07:43.789Z,3.50
2023-01-19T21:10:14.283Z,3.50
2023-01-19T21:12:44.959Z,3.40
2023-01-19T21:15:15.308Z,3.50
2023-01-19T21:17:47.066Z,3.40
2023-01-19T21:20:17.339Z,3.40
2023-01-19T21:22:47.569Z,3.30
2023-01-19T21:25:17.430Z,3.40
2023-01-19T21:27:47.245Z,3.40
2023-01-19T21:30:19.250Z,3.40
2023-01-19T21:32:50.708Z,3.30
2023-01-19T21:35:20.394Z,3.30
2023-01-19T21:37:50.098Z,3.40
2023-01-19T21:40:20.753Z,3.40
2023-01-19T21:42:50.804Z,3.30
2023-01-19T21:45:20.419Z,3.30
2023-01-19T21:47:51.522Z,3.40
2023-01-19T21:50:20.896Z,3.40
2023-01-19T21:52:50.353Z,3.30
2023-01-19T21:55:19.785Z,3.20
2023-01-19T21:57:49.447Z,3.30
2023-01-19T22:00:21.048Z,3.20
2023-01-19T22:03:03.145Z,3.20
2023-01-19T22:05:37.043Z,3.30
2023-01-19T22:08:07.381Z,3.30
2023-01-19T22:10:38.543Z,3.20
2023-01-19T22:13:08.159Z,3.20
2023-01-19T22:15:37.826Z,3.10
2023-01-19T22:18:08.613Z,3.20
2023-01-19T22:20:38.084Z,3.10
2023-01-19T22:23:07.618Z,3.10
2023-01-19T22:25:36.847Z,3.20
2023-01-19T22:28:06.073Z,3.10
2023-01-19T22:30:35.547Z,3.20
2023-01-19T22:33:05.072Z,3.10
2023-01-19T22:35:36.239Z,3.20
2023-01-19T22:38:05.489Z,3.20
2023-01-19T22:40:34.697Z,3.30
2023-01-19T22:43:04.062Z,3.30
2023-01-19T22:45:33.367Z,3.30
2023-01-19T22:48:02.742Z,3.40
2023-01-19T22:50:31.951Z,3.40
2023-01-19T22:53:02.605Z,3.40
2023-01-19T22:55:32.077Z,3.40
2023-01-19T22:58:01.343Z,3.40
2023-01-19T23:00:30.633Z,3.40
2023-01-19T23:03:00.091Z,3.40
2023-01-19T23:05:29.375Z,3.40
2023-01-19T23:07:58.613Z,3.50
2023-01-19T23:10:30.655Z,3.40
2023-01-19T23:13:00.644Z,3.50
2023-01-19T23:15:29.920Z,3.50
2023-01-19T23:17:59.215Z,3.60
2023-01-19T23:20:28.868Z,3.60
2023-01-19T23:22:58.704Z,3.60
2023-01-19T23:25:30.133Z,3.70
2023-01-19T23:27:59.534Z,3.70
2023-01-19T23:30:29.016Z,3.70
2023-01-19T23:32:58.645Z,3.70
2023-01-19T23:35:28.069Z,3.70
2023-01-19T23:37:59.101Z,3.70
2023-01-19T23:40:29.829Z,3.70
2023-01-19T23:42:59.056Z,3.70
2023-01-19T23:45:28.468Z,3.70
2023-01-19T23:47:57.951Z,3.70
2023-01-19T23:50:27.422Z,3.70
2023-01-19T23:52:56.846Z,3.70
2023-01-19T23:55:26.215Z,3.80
2023-01-19T23:57:56.847Z,3.70
